createdAt,value
2019-03-17T00:01:57.996Z,92021.30
2019-03-17T00:04:47.595Z,92016.77
2019-03-17T00:07:36.952Z,92024.34
2019-03-17T00:10:26.366Z,92024.52
2019-03-17T00:13:17.828Z,92024.25
2019-03-17T00:16:06.619Z,92024.61
2019-03-17T00:18:55.971Z,92026.75
2019-03-17T00:21:46.254Z,92027.03
2019-03-17T00:24:35.780Z,92024.72
2019-03-17T00:27:25.783Z,92030.33
2019-03-17T00:30:14.079Z,92030.59
2019-03-17T00:33:03.595Z,92031.31
2019-03-17T00:35:54.003Z,92030.07
2019-03-17T00:38:43.771Z,92030.58
2019-03-17T00:41:32.774Z,92029.06
2019-03-17T00:44:22.711Z,92035.14
2019-03-17T00:47:12.164Z,92023.03
2019-03-17T00:50:02.604Z,92027.44
2019-03-17T00:52:52.258Z,92024.60
2019-03-17T00:55:41.688Z,92023.73
2019-03-17T00:58:31.060Z,92020.41
2019-03-17T01:01:20.599Z,92022.27
2019-03-17T01:04:10.532Z,92022.54
2019-03-17T01:06:59.934Z,92019.69
2019-03-17T01:09:49.305Z,92012.47
2019-03-17T01:12:38.754Z,92021.98
2019-03-17T01:15:27.950Z,92017.56
2019-03-17T01:18:17.410Z,92024.42
2019-03-17T01:21:06.940Z,92021.91
2019-03-17T01:23:57.306Z,92027.42
2019-03-17T01:26:47.600Z,92026.63
2019-03-17T01:29:37.309Z,92027.64
2019-03-17T01:32:28.145Z,92029.68
2019-03-17T01:35:17.560Z,92032.02
2019-03-17T01:38:07.411Z,92036.75
2019-03-17T01:40:57.031Z,92033.09
2019-03-17T01:43:46.895Z,92034.98
2019-03-17T01:46:36.463Z,92032.20
2019-03-17T01:49:26.391Z,92045.41
2019-03-17T01:52:16.444Z,92036.84
2019-03-17T01:55:06.527Z,92040.22
2019-03-17T01:57:55.894Z,92041.55
2019-03-17T02:00:46.089Z,92050.36
2019-03-17T02:03:36.164Z,92046.22
2019-03-17T02:06:26.168Z,92043.09
2019-03-17T02:09:15.783Z,92049.80
2019-03-17T02:12:05.724Z,92054.60
2019-03-17T02:14:54.829Z,92057.69
2019-03-17T02:17:44.888Z,92061.07
2019-03-17T02:20:34.933Z,92062.21
2019-03-17T02:23:24.541Z,92068.48
2019-03-17T02:26:13.853Z,92063.45
2019-03-17T02:29:03.093Z,92067.06
2019-03-17T02:31:52.435Z,92069.53
2019-03-17T02:34:41.578Z,92072.00
2019-03-17T02:37:31.385Z,92074.55
2019-03-17T02:40:20.717Z,92080.20
2019-03-17T02:43:10.172Z,92072.69
2019-03-17T02:46:03.011Z,92086.66
2019-03-17T02:48:51.448Z,92078.09
2019-03-17T02:51:40.764Z,92078.61
2019-03-17T02:54:30.165Z,92077.55
2019-03-17T02:57:19.482Z,92078.39
2019-03-17T03:00:10.746Z,92084.91
2019-03-17T03:03:00.152Z,92084.04
2019-03-17T03:05:55.189Z,92086.60
2019-03-17T03:08:41.784Z,92088.51
2019-03-17T03:11:32.986Z,92095.06
2019-03-17T03:14:23.298Z,92098.56
2019-03-17T03:17:13.195Z,92098.11
2019-03-17T03:20:03.060Z,92109.34
2019-03-17T03:22:51.969Z,92111.52
2019-03-17T03:25:41.402Z,92120.11
2019-03-17T03:28:31.261Z,92126.66
2019-03-17T03:31:21.076Z,92125.11
2019-03-17T03:34:10.691Z,92135.03
2019-03-17T03:37:00.754Z,92138.84
2019-03-17T03:39:49.293Z,92149.34
2019-03-17T03:42:38.675Z,92145.48
2019-03-17T03:45:28.450Z,92141.50
2019-03-17T03:48:17.840Z,92139.25
2019-03-17T03:51:07.650Z,92140.59
2019-03-17T03:53:56.060Z,92135.78
2019-03-17T03:56:46.252Z,92131.08
2019-03-17T03:59:34.537Z,92131.08
2019-03-17T04:02:24.375Z,92136.30
2019-03-17T04:05:12.851Z,92136.30
2019-03-17T04:08:02.822Z,92144.77
2019-03-17T04:10:52.655Z,92140.89
2019-03-17T04:13:42.026Z,92144.05
2019-03-17T04:16:30.767Z,92137.47
2019-03-17T04:19:18.918Z,92144.25
2019-03-17T04:22:07.385Z,92144.75
2019-03-17T04:24:55.905Z,92143.72
2019-03-17T04:27:44.447Z,92136.64
2019-03-17T04:30:33.312Z,92141.08
2019-03-17T04:33:21.624Z,92150.84
2019-03-17T04:36:09.863Z,92145.88
2019-03-17T04:38:58.633Z,92145.00
2019-03-17T04:41:46.545Z,92147.69
2019-03-17T04:44:35.123Z,92157.39
2019-03-17T04:47:23.672Z,92150.78
2019-03-17T04:50:11.984Z,92155.63
2019-03-17T04:53:00.309Z,92153.13
2019-03-17T04:55:48.094Z,92151.80
2019-03-17T04:58:36.584Z,92159.35
2019-03-17T05:01:24.711Z,92156.25
2019-03-17T05:04:13.059Z,92161.48
2019-03-17T05:07:01.195Z,92164.34
2019-03-17T05:09:49.892Z,92167.82
2019-03-17T05:12:37.687Z,92169.20
2019-03-17T05:15:25.377Z,92170.22
2019-03-17T05:18:13.127Z,92171.84
2019-03-17T05:21:01.358Z,92170.59
2019-03-17T05:23:50.260Z,92165.52
2019-03-17T05:26:39.266Z,92168.05
2019-03-17T05:29:26.911Z,92163.91
2019-03-17T05:32:15.291Z,92163.47
2019-03-17T05:35:03.472Z,92166.30
2019-03-17T05:37:51.646Z,92167.36
2019-03-17T05:40:42.615Z,92158.41
2019-03-17T05:43:30.925Z,92161.91
2019-03-17T05:46:19.348Z,92166.27
2019-03-17T05:49:08.258Z,92160.63
2019-03-17T05:52:00.425Z,92156.95
2019-03-17T05:54:48.398Z,92164.13
2019-03-17T05:57:36.746Z,92171.63
2019-03-17T06:00:25.356Z,92165.27
2019-03-17T06:03:13.378Z,92171.97
2019-03-17T06:06:01.896Z,92171.58
2019-03-17T06:08:50.444Z,92177.62
2019-03-17T06:11:39.009Z,92185.83
2019-03-17T06:14:27.337Z,92185.81
2019-03-17T06:17:15.173Z,92183.41
2019-03-17T06:20:03.388Z,92193.03
2019-03-17T06:22:52.062Z,92196.25
2019-03-17T06:25:39.589Z,92199.64
2019-03-17T06:28:28.557Z,92203.64
2019-03-17T06:31:16.250Z,92205.41
2019-03-17T06:34:05.147Z,92201.17
2019-03-17T06:36:52.987Z,92207.95
2019-03-17T06:39:41.467Z,92213.94
2019-03-17T06:42:29.266Z,92206.80
2019-03-17T06:45:17.951Z,92201.56
2019-03-17T06:48:06.051Z,92197.92
2019-03-17T06:50:54.573Z,92197.48
2019-03-17T06:53:42.325Z,92203.45
2019-03-17T06:56:33.071Z,92198.24
2019-03-17T06:59:21.396Z,92210.35
2019-03-17T07:02:09.719Z,92202.51
2019-03-17T07:04:57.879Z,92207.48
2019-03-17T07:07:46.421Z,92209.36
2019-03-17T07:10:34.195Z,92212.56
2019-03-17T07:13:22.825Z,92211.30
2019-03-17T07:16:11.266Z,92205.34
2019-03-17T07:18:59.701Z,92203.69
2019-03-17T07:21:47.480Z,92207.92
2019-03-17T07:24:36.224Z,92209.34
2019-03-17T07:27:24.436Z,92209.52
2019-03-17T07:30:13.862Z,92213.12
2019-03-17T07:33:02.562Z,92208.58
2019-03-17T07:35:51.713Z,92204.47
2019-03-17T07:38:43.679Z,92203.64
2019-03-17T07:41:32.164Z,92199.30
2019-03-17T07:44:20.288Z,92193.80
2019-03-17T07:47:08.893Z,92194.17
2019-03-17T07:49:56.694Z,92191.91
2019-03-17T07:52:45.244Z,92195.12
2019-03-17T07:55:33.798Z,92194.55
2019-03-17T07:58:23.371Z,92178.83
2019-03-17T08:01:11.463Z,92178.14
2019-03-17T08:04:01.107Z,92174.75
2019-03-17T08:06:49.336Z,92182.89
2019-03-17T08:09:37.994Z,92175.83
2019-03-17T08:12:26.399Z,92176.91
2019-03-17T08:15:14.198Z,92182.34
2019-03-17T08:18:01.980Z,92178.52
2019-03-17T08:20:50.349Z,92181.17
2019-03-17T08:23:38.783Z,92176.53
2019-03-17T08:26:27.297Z,92171.25
2019-03-17T08:29:15.929Z,92172.15
2019-03-17T08:32:05.815Z,92169.84
2019-03-17T08:34:54.768Z,92169.64
2019-03-17T08:37:44.285Z,92172.78
2019-03-17T08:40:34.203Z,92173.45
2019-03-17T08:43:23.467Z,92170.67
2019-03-17T08:46:12.851Z,92174.74
2019-03-17T08:49:02.202Z,92173.08
2019-03-17T08:51:52.457Z,92171.83
2019-03-17T08:54:47.441Z,92164.98
2019-03-17T08:57:37.177Z,92169.28
2019-03-17T09:00:26.621Z,92157.31
2019-03-17T09:03:15.404Z,92164.30
2019-03-17T09:06:04.908Z,92149.39
2019-03-17T09:08:54.329Z,92148.09
2019-03-17T09:11:44.179Z,92141.34
2019-03-17T09:14:33.633Z,92143.41
2019-03-17T09:17:23.286Z,92133.78
2019-03-17T09:20:12.476Z,92128.91
2019-03-17T09:23:01.945Z,92119.84
2019-03-17T09:25:51.638Z,92124.97
2019-03-17T09:28:41.567Z,92120.58
2019-03-17T09:31:31.040Z,92115.55
2019-03-17T09:34:20.933Z,92114.16
2019-03-17T09:37:10.931Z,92115.76
2019-03-17T09:40:01.104Z,92108.20
2019-03-17T09:42:51.191Z,92102.60
2019-03-17T09:45:40.599Z,92106.42
2019-03-17T09:48:30.494Z,92098.45
2019-03-17T09:51:19.643Z,92096.02
2019-03-17T09:54:09.460Z,92092.48
2019-03-17T09:56:59.332Z,92094.21
2019-03-17T09:59:49.998Z,92089.13
2019-03-17T10:02:40.235Z,92083.41
2019-03-17T10:05:29.960Z,92080.05
2019-03-17T10:08:19.275Z,92077.39
2019-03-17T10:11:10.755Z,92084.67
2019-03-17T10:13:59.960Z,92080.88
2019-03-17T10:16:49.665Z,92074.53
2019-03-17T10:19:39.127Z,92076.08
2019-03-17T10:22:28.975Z,92075.06
2019-03-17T10:25:19.213Z,92071.72
2019-03-17T10:28:08.337Z,92071.45
2019-03-17T10:30:58.071Z,92074.59
2019-03-17T10:33:47.893Z,92071.50
2019-03-17T10:36:37.967Z,92071.80
2019-03-17T10:39:27.590Z,92061.34
2019-03-17T10:42:17.677Z,92054.68
2019-03-17T10:45:07.327Z,92056.72
2019-03-17T10:47:56.976Z,92051.37
2019-03-17T10:50:49.758Z,92040.70
2019-03-17T10:53:38.254Z,92044.11
2019-03-17T10:56:27.652Z,92039.86
2019-03-17T10:59:17.065Z,92035.83
2019-03-17T11:13:14.886Z,92019.25
2019-03-17T11:16:04.373Z,92019.55
2019-03-17T11:18:53.930Z,92012.42
2019-03-17T11:21:43.496Z,92014.97
2019-03-17T11:24:32.831Z,92014.14
2019-03-17T11:27:22.076Z,92007.80
2019-03-17T11:30:13.266Z,92007.23
2019-03-17T11:33:02.801Z,91998.53
2019-03-17T11:35:51.889Z,91987.26
2019-03-17T11:38:41.195Z,91987.90
2019-03-17T11:41:30.744Z,91989.05
2019-03-17T11:44:20.038Z,91973.50
2019-03-17T11:47:11.523Z,91974.73
2019-03-17T11:50:00.575Z,91968.00
2019-03-17T11:52:51.168Z,91966.35
2019-03-17T11:55:40.849Z,91962.16
2019-03-17T11:58:30.242Z,91963.39
2019-03-17T12:01:19.692Z,91969.31
2019-03-17T12:04:09.377Z,91966.58
2019-03-17T12:06:58.635Z,91952.48
2019-03-17T12:09:50.514Z,91961.92
2019-03-17T12:12:38.337Z,91962.14
2019-03-17T12:15:27.895Z,91958.23
2019-03-17T12:18:17.142Z,91953.28
2019-03-17T12:21:06.947Z,91952.41
2019-03-17T12:23:56.181Z,91944.13
2019-03-17T12:26:45.738Z,91945.67
2019-03-17T12:29:34.989Z,91934.09
2019-03-17T12:32:24.865Z,91935.81
2019-03-17T12:35:14.238Z,91927.11
2019-03-17T12:38:03.398Z,91927.54
2019-03-17T12:40:52.165Z,91933.22
2019-03-17T12:43:41.154Z,91927.48
2019-03-17T12:46:30.473Z,91929.68
2019-03-17T12:49:19.723Z,91920.06
2019-03-17T12:52:08.929Z,91920.67
2019-03-17T12:54:58.324Z,91926.09
2019-03-17T12:57:47.604Z,91921.00
2019-03-17T13:00:36.342Z,91912.31
2019-03-17T13:03:25.193Z,91915.38
2019-03-17T13:06:14.068Z,91912.63
2019-03-17T13:09:04.668Z,91910.17
2019-03-17T13:11:54.244Z,91904.11
2019-03-17T13:14:43.771Z,91900.52
2019-03-17T13:17:33.489Z,91905.69
2019-03-17T13:20:23.005Z,91896.39
2019-03-17T13:23:12.433Z,91893.61
2019-03-17T13:26:01.354Z,91896.78
2019-03-17T13:28:50.961Z,91892.14
2019-03-17T13:31:40.258Z,91896.39
2019-03-17T13:34:29.098Z,91893.42
2019-03-17T13:37:18.477Z,91889.13
2019-03-17T13:40:09.395Z,91886.19
2019-03-17T13:42:58.849Z,91881.41
2019-03-17T13:45:48.618Z,91881.22
2019-03-17T13:48:37.882Z,91877.39
2019-03-17T13:51:26.950Z,91879.91
2019-03-17T13:54:16.447Z,91875.75
2019-03-17T13:57:05.641Z,91874.45
2019-03-17T13:59:55.286Z,91874.36
2019-03-17T14:02:44.987Z,91868.87
2019-03-17T14:05:33.739Z,91870.25
2019-03-17T14:08:23.024Z,91872.67
2019-03-17T14:11:12.371Z,91864.23
2019-03-17T14:14:01.682Z,91868.69
2019-03-17T14:16:51.003Z,91868.69
2019-03-17T14:19:40.745Z,91867.48
2019-03-17T14:22:35.195Z,91869.20
2019-03-17T14:25:27.965Z,91858.38
2019-03-17T14:28:17.053Z,91858.38
2019-03-17T14:31:06.651Z,91857.48
2019-03-17T14:33:55.849Z,91865.03
2019-03-17T14:36:45.219Z,91868.22
2019-03-17T14:39:34.612Z,91872.12
2019-03-17T14:42:24.565Z,91870.72
2019-03-17T14:45:14.714Z,91874.39
2019-03-17T14:48:04.855Z,91870.00
2019-03-17T14:50:54.235Z,91873.38
2019-03-17T14:53:43.729Z,91878.13
2019-03-17T14:56:33.123Z,91876.61
2019-03-17T14:59:22.511Z,91877.55
2019-03-17T15:02:11.867Z,91880.89
2019-03-17T15:05:01.077Z,91886.23
2019-03-17T15:07:50.463Z,91881.85
2019-03-17T15:10:40.200Z,91877.27
2019-03-17T15:13:28.209Z,91879.23
2019-03-17T15:16:16.354Z,91879.42
2019-03-17T15:19:04.787Z,91886.89
2019-03-17T15:21:53.017Z,91880.88
2019-03-17T15:24:41.250Z,91882.24
2019-03-17T15:27:29.698Z,91877.13
2019-03-17T15:30:19.103Z,91877.34
2019-03-17T15:33:07.051Z,91880.05
2019-03-17T15:35:55.481Z,91880.59
2019-03-17T15:38:43.514Z,91881.79
2019-03-17T15:41:31.323Z,91879.62
2019-03-17T15:44:19.544Z,91886.97
2019-03-17T15:47:07.640Z,91886.02
2019-03-17T15:49:55.714Z,91886.45
2019-03-17T15:52:44.053Z,91876.82
2019-03-17T15:55:32.656Z,91892.10
2019-03-17T15:58:20.542Z,91887.70
2019-03-17T16:01:09.076Z,91888.70
2019-03-17T16:03:57.179Z,91888.03
2019-03-17T16:06:45.272Z,91893.14
2019-03-17T16:09:33.245Z,91895.50
2019-03-17T16:12:21.689Z,91898.20
2019-03-17T16:15:10.822Z,91900.55
2019-03-17T16:17:58.845Z,91903.29
2019-03-17T16:20:49.797Z,91901.27
2019-03-17T16:23:38.136Z,91904.19
2019-03-17T16:26:26.113Z,91910.06
2019-03-17T16:29:14.313Z,91910.01
2019-03-17T16:32:02.509Z,91911.56
2019-03-17T16:34:50.823Z,91908.08
2019-03-17T16:37:38.517Z,91913.81
2019-03-17T16:40:26.968Z,91916.34
2019-03-17T16:43:15.386Z,91916.69
2019-03-17T16:46:04.048Z,91914.84
2019-03-17T16:48:52.744Z,91919.42
2019-03-17T16:51:40.441Z,91915.84
2019-03-17T16:54:31.052Z,91920.83
2019-03-17T16:57:19.559Z,91917.89
2019-03-17T17:00:09.007Z,91916.13
2019-03-17T17:02:57.143Z,91921.53
2019-03-17T17:05:45.260Z,91922.83
2019-03-17T17:08:33.711Z,91921.77
2019-03-17T17:11:21.902Z,91926.59
2019-03-17T17:14:09.848Z,91933.05
2019-03-17T17:16:57.961Z,91929.38
2019-03-17T17:19:46.586Z,91934.28
2019-03-17T17:22:34.264Z,91935.78
2019-03-17T17:25:22.463Z,91934.86
2019-03-17T17:28:10.669Z,91934.61
2019-03-17T17:30:59.101Z,91945.88
2019-03-17T17:33:47.700Z,91941.62
2019-03-17T17:36:35.862Z,91946.58
2019-03-17T17:39:24.258Z,91953.13
2019-03-17T17:42:11.880Z,91952.77
2019-03-17T17:45:00.367Z,91955.91
2019-03-17T17:47:48.962Z,91967.02
2019-03-17T17:50:36.815Z,91968.13
2019-03-17T17:53:25.355Z,91959.77
2019-03-17T17:56:13.815Z,91963.81
2019-03-17T17:59:02.343Z,91969.20
2019-03-17T18:01:50.478Z,91967.81
2019-03-17T18:04:38.934Z,91977.20
2019-03-17T18:07:27.004Z,91981.51
2019-03-17T18:10:15.208Z,91980.19
2019-03-17T18:13:03.789Z,91981.34
2019-03-17T18:15:51.707Z,91979.23
2019-03-17T18:18:39.736Z,91985.30
2019-03-17T18:21:28.014Z,91987.62
2019-03-17T18:24:16.100Z,91983.88
2019-03-17T18:27:04.704Z,91983.47
2019-03-17T18:29:53.230Z,91984.48
2019-03-17T18:32:41.460Z,91986.70
2019-03-17T18:35:29.971Z,91991.89
2019-03-17T18:38:18.663Z,91987.55
2019-03-17T18:41:07.123Z,91990.45
2019-03-17T18:43:55.020Z,91995.19
2019-03-17T18:46:43.104Z,92004.56
2019-03-17T18:49:30.864Z,92004.67
2019-03-17T18:52:19.409Z,92002.42
2019-03-17T18:55:07.695Z,91999.53
2019-03-17T18:57:55.935Z,92005.30
2019-03-17T19:00:44.562Z,92006.27
2019-03-17T19:03:32.303Z,92003.70
2019-03-17T19:06:20.852Z,92009.59
2019-03-17T19:09:09.289Z,92013.42
2019-03-17T19:11:57.891Z,92020.56
2019-03-17T19:14:46.288Z,92018.04
2019-03-17T19:17:34.639Z,92020.56
2019-03-17T19:20:22.989Z,92029.53
2019-03-17T19:23:11.457Z,92032.36
2019-03-17T19:25:59.539Z,92022.59
2019-03-17T19:28:48.036Z,92036.66
2019-03-17T19:31:36.632Z,92036.09
2019-03-17T19:34:24.402Z,92033.73
2019-03-17T19:37:12.862Z,92028.03
2019-03-17T19:40:01.832Z,92028.53
2019-03-17T19:42:58.481Z,92018.20
2019-03-17T19:45:39.929Z,92016.02
2019-03-17T19:48:28.422Z,92023.67
2019-03-17T19:51:18.932Z,92029.13
2019-03-17T19:54:05.962Z,92027.85
2019-03-17T19:56:54.718Z,92026.11
2019-03-17T19:59:42.837Z,92020.43
2019-03-17T20:02:31.022Z,92020.48
2019-03-17T20:05:19.540Z,92025.00
2019-03-17T20:08:07.484Z,92026.92
2019-03-17T20:10:56.074Z,92031.12
2019-03-17T20:13:44.113Z,92028.98
2019-03-17T20:16:32.554Z,92043.27
2019-03-17T20:19:21.172Z,92041.29
2019-03-17T20:22:09.100Z,92038.35
2019-03-17T20:24:57.476Z,92045.47
2019-03-17T20:27:45.804Z,92043.59
2019-03-17T20:30:33.992Z,92044.95
2019-03-17T20:33:22.495Z,92043.27
2019-03-17T20:36:10.542Z,92040.28
2019-03-17T20:38:58.254Z,92043.16
2019-03-17T20:41:46.847Z,92036.89
2019-03-17T20:44:34.864Z,92037.98
2019-03-17T20:47:23.594Z,92045.88
2019-03-17T20:50:11.858Z,92046.09
2019-03-17T20:52:59.948Z,92043.69
2019-03-17T20:55:48.496Z,92052.05
2019-03-17T20:58:36.822Z,92049.29
2019-03-17T21:01:24.987Z,92052.14
2019-03-17T21:04:13.472Z,92050.74
2019-03-17T21:07:02.011Z,92050.72
2019-03-17T21:09:50.191Z,92057.03
2019-03-17T21:12:37.963Z,92058.00
2019-03-17T21:15:26.224Z,92052.83
2019-03-17T21:18:13.868Z,92050.89
2019-03-17T21:21:01.896Z,92050.98
2019-03-17T21:23:49.911Z,92049.29
2019-03-17T21:26:37.794Z,92056.47
2019-03-17T21:29:26.170Z,92048.16
2019-03-17T21:32:14.776Z,92055.69
2019-03-17T21:35:02.509Z,92049.93
2019-03-17T21:37:50.583Z,92043.95
2019-03-17T21:40:38.657Z,92050.30
2019-03-17T21:43:27.184Z,92047.78
2019-03-17T21:46:15.665Z,92048.98
2019-03-17T21:49:04.009Z,92041.08
2019-03-17T21:51:52.448Z,92046.77
2019-03-17T21:54:40.541Z,92048.98
2019-03-17T21:57:28.303Z,92046.31
2019-03-17T22:00:17.179Z,92048.36
2019-03-17T22:03:05.037Z,92049.54
2019-03-17T22:05:53.498Z,92047.08
2019-03-17T22:08:41.984Z,92050.23
2019-03-17T22:11:30.646Z,92046.06
2019-03-17T22:14:18.673Z,92048.33
2019-03-17T22:17:06.551Z,92050.80
2019-03-17T22:19:54.809Z,92048.61
2019-03-17T22:22:43.377Z,92055.65
2019-03-17T22:25:31.084Z,92055.36
2019-03-17T22:28:19.844Z,92053.75
2019-03-17T22:31:07.997Z,92063.73
2019-03-17T22:33:56.605Z,92063.54
2019-03-17T22:36:44.601Z,92060.50
2019-03-17T22:39:34.289Z,92052.59
2019-03-17T22:42:22.651Z,92051.97
2019-03-17T22:45:11.029Z,92054.02
2019-03-17T22:47:59.148Z,92058.49
2019-03-17T22:50:47.148Z,92053.59
2019-03-17T22:53:35.131Z,92052.59
2019-03-17T22:56:23.568Z,92056.89
2019-03-17T22:59:11.716Z,92057.86
2019-03-17T23:01:59.633Z,92061.77
2019-03-17T23:04:47.842Z,92061.89
2019-03-17T23:07:36.233Z,92067.75
2019-03-17T23:10:24.609Z,92068.48
2019-03-17T23:13:13.298Z,92062.80
2019-03-17T23:16:01.437Z,92063.76
2019-03-17T23:18:49.611Z,92065.06
2019-03-17T23:21:38.066Z,92067.92
2019-03-17T23:24:25.935Z,92067.34
2019-03-17T23:27:13.912Z,92075.30
2019-03-17T23:30:01.590Z,92074.72
2019-03-17T23:32:52.968Z,92084.28
2019-03-17T23:35:41.068Z,92082.99
2019-03-17T23:38:29.610Z,92084.59
2019-03-17T23:41:18.152Z,92084.80
2019-03-17T23:44:06.130Z,92088.48
2019-03-17T23:46:54.593Z,92085.44
2019-03-17T23:49:42.977Z,92079.19
2019-03-17T23:52:31.628Z,92078.34
2019-03-17T23:55:19.337Z,92079.30
2019-03-17T23:58:07.740Z,92078.15
